sensor_id;sensor_type;location;lat;lon;timestamp;pressure;altitude;pressure_sealevel;temperature;humidity
30338;BME280;17143;51.888;5.408;2022-12-10T00:12:17;100704.72;;;-0.80;100.00
30338;BME280;17143;51.888;5.408;2022-12-10T00:27:19;100700.78;;;-0.77;100.00
30338;BME280;17143;51.888;5.408;2022-12-10T00:42:20;100695.66;;;-0.68;100.00
30338;BME280;17143;51.888;5.408;2022-12-10T00:57:22;100704.34;;;-0.57;100.00
30338;BME280;17143;51.888;5.408;2022-12-10T01:12:24;100699.72;;;-0.62;100.00
30338;BME280;17143;51.888;5.408;2022-12-10T01:27:27;100698.38;;;-0.67;100.00
30338;BME280;17143;51.888;5.408;2022-12-10T01:42:31;100708.94;;;-0.81;100.00
30338;BME280;17143;51.888;5.408;2022-12-10T01:57:33;100732.56;;;-0.92;100.00
30338;BME280;17143;51.888;5.408;2022-12-10T02:12:47;100732.84;;;-0.80;100.00
30338;BME280;17143;51.888;5.408;2022-12-10T02:27:55;100742.78;;;-0.75;100.00
30338;BME280;17143;51.888;5.408;2022-12-10T02:43:01;100728.91;;;-0.77;100.00
30338;BME280;17143;51.888;5.408;2022-12-10T02:58:09;100740.50;;;-0.72;100.00
30338;BME280;17143;51.888;5.408;2022-12-10T03:13:18;100730.09;;;-0.65;100.00
30338;BME280;17143;51.888;5.408;2022-12-10T03:28:25;100733.25;;;-0.58;100.00
30338;BME280;17143;51.888;5.408;2022-12-10T03:43:28;100723.59;;;-0.52;100.00
30338;BME280;17143;51.888;5.408;2022-12-10T03:58:30;100739.03;;;-0.42;100.00
30338;BME280;17143;51.888;5.408;2022-12-10T04:13:33;100737.06;;;-0.36;100.00
30338;BME280;17143;51.888;5.408;2022-12-10T04:28:35;100747.31;;;-0.36;100.00
30338;BME280;17143;51.888;5.408;2022-12-10T04:43:37;100725.31;;;-0.34;100.00
30338;BME280;17143;51.888;5.408;2022-12-10T04:58:39;100754.81;;;-0.29;100.00
30338;BME280;17143;51.888;5.408;2022-12-10T05:13:43;100759.66;;;-0.32;100.00
30338;BME280;17143;51.888;5.408;2022-12-10T05:28:48;100765.06;;;-0.29;100.00
30338;BME280;17143;51.888;5.408;2022-12-10T05:43:52;100764.91;;;-0.31;100.00
30338;BME280;17143;51.888;5.408;2022-12-10T05:58:58;100770.63;;;-0.33;100.00
30338;BME280;17143;51.888;5.408;2022-12-10T06:14:00;100772.59;;;-0.39;100.00
30338;BME280;17143;51.888;5.408;2022-12-10T06:29:02;100771.97;;;-0.37;100.00
30338;BME280;17143;51.888;5.408;2022-12-10T06:44:06;100786.16;;;-0.40;100.00
30338;BME280;17143;51.888;5.408;2022-12-10T06:59:08;100806.34;;;-0.43;100.00
30338;BME280;17143;51.888;5.408;2022-12-10T07:14:13;100813.22;;;-0.42;100.00
30338;BME280;17143;51.888;5.408;2022-12-10T07:29:18;100823.19;;;-0.45;100.00
30338;BME280;17143;51.888;5.408;2022-12-10T07:44:21;100835.81;;;-0.38;100.00
30338;BME280;17143;51.888;5.408;2022-12-10T07:59:23;100852.81;;;-0.30;100.00
30338;BME280;17143;51.888;5.408;2022-12-10T08:14:25;100860.47;;;-0.30;100.00
30338;BME280;17143;51.888;5.408;2022-12-10T08:29:27;100860.78;;;-0.27;100.00
30338;BME280;17143;51.888;5.408;2022-12-10T08:44:31;100874.31;;;-0.28;100.00
30338;BME280;17143;51.888;5.408;2022-12-10T08:59:33;100886.94;;;-0.21;100.00
30338;BME280;17143;51.888;5.408;2022-12-10T09:14:35;100910.69;;;-0.05;100.00
30338;BME280;17143;51.888;5.408;2022-12-10T09:29:38;100918.53;;;-0.04;100.00
30338;BME280;17143;51.888;5.408;2022-12-10T09:44:48;100920.78;;;0.02;100.00
30338;BME280;17143;51.888;5.408;2022-12-10T09:59:55;100929.34;;;0.11;100.00
30338;BME280;17143;51.888;5.408;2022-12-10T10:14:59;100943.78;;;0.19;100.00
30338;BME280;17143;51.888;5.408;2022-12-10T10:30:15;100946.50;;;0.21;100.00
30338;BME280;17143;51.888;5.408;2022-12-10T10:45:34;100942.53;;;0.33;100.00
30338;BME280;17143;51.888;5.408;2022-12-10T11:00:37;100951.25;;;0.35;100.00
30338;BME280;17143;51.888;5.408;2022-12-10T11:15:40;100932.56;;;0.44;100.00
30338;BME280;17143;51.888;5.408;2022-12-10T11:30:45;100922.59;;;0.47;100.00
30338;BME280;17143;51.888;5.408;2022-12-10T11:45:59;100917.69;;;0.59;100.00
30338;BME280;17143;51.888;5.408;2022-12-10T12:01:12;100926.78;;;0.55;100.00
30338;BME280;17143;51.888;5.408;2022-12-10T12:16:18;100926.09;;;0.67;100.00
30338;BME280;17143;51.888;5.408;2022-12-10T12:31:29;100931.22;;;0.67;100.00
30338;BME280;17143;51.888;5.408;2022-12-10T12:46:37;100919.50;;;0.69;100.00
30338;BME280;17143;51.888;5.408;2022-12-10T13:01:43;100920.19;;;0.76;100.00
30338;BME280;17143;51.888;5.408;2022-12-10T13:17:23;100930.81;;;0.89;100.00
30338;BME280;17143;51.888;5.408;2022-12-10T13:32:43;100939.84;;;0.94;100.00
30338;BME280;17143;51.888;5.408;2022-12-10T13:47:49;100941.41;;;0.84;100.00
30338;BME280;17143;51.888;5.408;2022-12-10T14:03:07;100953.91;;;0.89;100.00
30338;BME280;17143;51.888;5.408;2022-12-10T14:18:16;100955.56;;;0.89;100.00
30338;BME280;17143;51.888;5.408;2022-12-10T14:33:19;100967.34;;;0.87;100.00
30338;BME280;17143;51.888;5.408;2022-12-10T14:48:22;100970.34;;;0.83;100.00
30338;BME280;17143;51.888;5.408;2022-12-10T15:03:27;100963.16;;;0.79;100.00
30338;BME280;17143;51.888;5.408;2022-12-10T15:18:33;100959.56;;;0.77;100.00
30338;BME280;17143;51.888;5.408;2022-12-10T15:33:40;100972.81;;;0.73;100.00
30338;BME280;17143;51.888;5.408;2022-12-10T15:48:43;100982.44;;;0.84;100.00
30338;BME280;17143;51.888;5.408;2022-12-10T16:03:45;100985.28;;;0.87;100.00
30338;BME280;17143;51.888;5.408;2022-12-10T16:18:47;100984.06;;;0.92;100.00
30338;BME280;17143;51.888;5.408;2022-12-10T16:33:49;100985.25;;;0.95;100.00
30338;BME280;17143;51.888;5.408;2022-12-10T16:48:51;100996.25;;;0.94;100.00
30338;BME280;17143;51.888;5.408;2022-12-10T17:03:54;101007.97;;;1.01;100.00
30338;BME280;17143;51.888;5.408;2022-12-10T17:18:56;101014.91;;;1.02;100.00
30338;BME280;17143;51.888;5.408;2022-12-10T17:33:58;101005.41;;;1.01;100.00
30338;BME280;17143;51.888;5.408;2022-12-10T17:49:01;101026.69;;;1.00;100.00
30338;BME280;17143;51.888;5.408;2022-12-10T18:04:03;101031.06;;;1.01;100.00
30338;BME280;17143;51.888;5.408;2022-12-10T18:19:11;101018.72;;;0.97;100.00
30338;BME280;17143;51.888;5.408;2022-12-10T18:34:15;101016.16;;;0.97;100.00
30338;BME280;17143;51.888;5.408;2022-12-10T18:49:18;101016.25;;;1.07;100.00
30338;BME280;17143;51.888;5.408;2022-12-10T19:04:20;101011.81;;;1.14;100.00
30338;BME280;17143;51.888;5.408;2022-12-10T19:19:22;101023.28;;;1.18;100.00
30338;BME280;17143;51.888;5.408;2022-12-10T19:34:24;100998.84;;;1.21;100.00
30338;BME280;17143;51.888;5.408;2022-12-10T19:49:26;101009.09;;;1.21;100.00
30338;BME280;17143;51.888;5.408;2022-12-10T20:04:28;100989.00;;;1.26;100.00
30338;BME280;17143;51.888;5.408;2022-12-10T20:19:30;101006.00;;;1.34;100.00
30338;BME280;17143;51.888;5.408;2022-12-10T20:34:32;101002.31;;;1.41;100.00
30338;BME280;17143;51.888;5.408;2022-12-10T20:49:34;101015.59;;;1.45;100.00
30338;BME280;17143;51.888;5.408;2022-12-10T21:04:37;101025.84;;;1.45;100.00
30338;BME280;17143;51.888;5.408;2022-12-10T21:19:39;101024.59;;;1.50;100.00
30338;BME280;17143;51.888;5.408;2022-12-10T21:34:40;101018.84;;;1.53;100.00
30338;BME280;17143;51.888;5.408;2022-12-10T21:49:42;101020.78;;;1.55;100.00
30338;BME280;17143;51.888;5.408;2022-12-10T22:04:44;101026.06;;;1.57;100.00
30338;BME280;17143;51.888;5.408;2022-12-10T22:19:46;101025.44;;;1.59;100.00
30338;BME280;17143;51.888;5.408;2022-12-10T22:34:48;101022.41;;;1.63;100.00
30338;BME280;17143;51.888;5.408;2022-12-10T22:49:50;101014.19;;;1.67;100.00
30338;BME280;17143;51.888;5.408;2022-12-10T23:04:52;101019.16;;;1.74;100.00
30338;BME280;17143;51.888;5.408;2022-12-10T23:19:54;101009.13;;;1.77;100.00
30338;BME280;17143;51.888;5.408;2022-12-10T23:34:56;101005.34;;;1.82;100.00
30338;BME280;17143;51.888;5.408;2022-12-10T23:49:58;101007.41;;;1.87;100.00
